San Juan Capistrano, California
Current Conditions -  °F | °C
As of 12:53 PM on Friday 31 Oct 2014 (Local Time) from KSNA Reporting Station
Broken Clouds Broken Clouds  
Wind Chill: 72°   Ceiling: 4600
Heat Index: 72°   Visibility: 10mi
Dew Point: 57°   Wind: 6mph
Humidity: 59%   Direction: 230°SW
Pressure: 29.92"   Gusts: NA
Location:  33.5°N, 117.66°W
Report Text: KSNA 311953Z 23005KT 10SM FEW029 SCT035 BKN046 22/14 A2992 RMK AO2 SLP129 T02220139 $
Loading
Personal Weather Stations






























Interactive Weather Map
Tropical Storm Tracking
New forecast layout! Learn more

10-Day Weather Forecast

Advertisements
Track Severe Weather on mobile